»·PEaware :: N1213T KSNA-KCRQ

N1213T :: KSNA-KCRQ

FLIGHT INFORMATION

Flight Status: Arrived
Operator: Privately registered:
United States
More flights under this callsign
Pilot: Anonymous 25699 (25699)
Aircraft: CESSNA 172 SKYHAWK
(C172)
More flights by this aircraft type
Origin: KSNA John Wayne-Orange Co
United States
Destination: KCRQ McClellan-Palomar
United States
More flights between these airports :: More routes between these airports
Route: +V23 OCN KCRQ
File this flight plan on PilotEdge
Remarks:
Altitude:
(Current/Filed)
5,000ft
Speed:
(Current/Filed)
120kts
Departed: 02-Dec-19 01:21 PM
Arrived: 02-Dec-19 02:01 PM
Distance/Time
Traveled:
44nm/0:40
Distance/Time
To Go:
Arrived

Flight Plot

Page will automatically refresh every two minutes.

Flight plan parsing failed; only flown route is shown


Map Options




Map Legend


Flown Route
Filed Route
Departure Airport
Arrival Airport
Navaid (VOR, NDB)
Fix

Horizontal Profiles

Position Reports

Time Latitude Longitude Heading Altitude Ground
Speed
02-Dec-19 12:56 33.664599 -117.874670 214 60ft 0kts
02-Dec-19 12:57 33.664599 -117.874670 214 60ft 0kts
02-Dec-19 12:58 33.664599 -117.874670 214 60ft 0kts
02-Dec-19 12:59 33.664599 -117.874670 214 60ft 0kts
02-Dec-19 13:00 33.664599 -117.874670 214 60ft 0kts
02-Dec-19 13:01 33.664599 -117.874670 214 60ft 0kts
02-Dec-19 13:02 33.664599 -117.874670 214 60ft 0kts
02-Dec-19 13:03 33.664594 -117.874674 214 60ft 0kts
02-Dec-19 13:04 33.664849 -117.874602 25 60ft 6kts
02-Dec-19 13:05 33.666869 -117.873125 34 60ft 13kts
02-Dec-19 13:06 33.670016 -117.869993 41 60ft 17kts
02-Dec-19 13:07 33.673487 -117.866951 352 60ft 4kts
02-Dec-19 13:08 33.674464 -117.866859 28 60ft 12kts
02-Dec-19 13:09 33.676406 -117.865631 29 60ft 18kts
02-Dec-19 13:10 33.679937 -117.863575 302 60ft 4kts
02-Dec-19 13:11 33.679949 -117.863599 301 60ft 0kts
02-Dec-19 13:12 33.679949 -117.863599 301 60ft 0kts
02-Dec-19 13:13 33.679949 -117.863599 301 60ft 0kts
02-Dec-19 13:14 33.679949 -117.863599 301 60ft 0kts
02-Dec-19 13:15 33.679949 -117.863599 301 60ft 0kts
02-Dec-19 13:16 33.679949 -117.863599 301 60ft 0kts
02-Dec-19 13:17 33.679949 -117.863599 301 60ft 0kts
02-Dec-19 13:18 33.679949 -117.863599 301 60ft 0kts
02-Dec-19 13:19 33.679949 -117.863599 301 60ft 0kts
02-Dec-19 13:20 33.674342 -117.867781 207 185ft 79kts
02-Dec-19 13:21 33.652714 -117.875757 191 1108ft 100kts
02-Dec-19 13:22 33.624618 -117.862328 157 1721ft 115kts
02-Dec-19 13:23 33.593631 -117.864501 189 2318ft 112kts
02-Dec-19 13:24 33.564335 -117.868578 189 3110ft 100kts
02-Dec-19 13:25 33.542232 -117.860972 117 4097ft 92kts
02-Dec-19 13:26 33.533144 -117.831812 115 4922ft 95kts
02-Dec-19 13:27 33.521844 -117.796151 115 5012ft 126kts
02-Dec-19 13:28 33.509243 -117.757088 115 5011ft 127kts
02-Dec-19 13:29 33.494878 -117.718441 132 5017ft 124kts
02-Dec-19 13:30 33.473490 -117.686006 133 5031ft 124kts
02-Dec-19 13:31 33.448143 -117.659456 149 5031ft 122kts
02-Dec-19 13:32 33.422576 -117.631919 140 5031ft 125kts
02-Dec-19 13:33 33.397584 -117.602534 140 5031ft 126kts
02-Dec-19 13:34 33.372358 -117.572832 140 5040ft 127kts
02-Dec-19 13:35 33.346995 -117.543008 139 5067ft 129kts
02-Dec-19 13:36 33.320975 -117.512424 139 5065ft 132kts
02-Dec-19 13:37 33.294681 -117.481546 138 5063ft 133kts
02-Dec-19 13:38 33.267962 -117.450199 137 5061ft 135kts
02-Dec-19 13:39 33.241127 -117.418742 136 5058ft 135kts
02-Dec-19 13:40 33.238967 -117.379067 82 5052ft 113kts
02-Dec-19 13:41 33.243021 -117.346102 82 5052ft 114kts
02-Dec-19 13:42 33.247363 -117.307962 83 5053ft 118kts
02-Dec-19 13:43 33.251490 -117.268771 83 5053ft 118kts
02-Dec-19 13:45 33.255524 -117.229743 83 5053ft 118kts
02-Dec-19 13:46 33.259470 -117.190775 83 5052ft 118kts
02-Dec-19 13:47 33.263053 -117.149545 84 5042ft 133kts
02-Dec-19 13:48 33.269048 -117.104944 82 5034ft 137kts
02-Dec-19 13:49 33.274834 -117.060055 87 5034ft 136kts
02-Dec-19 13:50 33.245794 -117.042415 182 4203ft 134kts
02-Dec-19 13:51 33.209759 -117.041154 181 3198ft 124kts
02-Dec-19 13:52 33.179510 -117.040991 211 3653ft 93kts
02-Dec-19 13:53 33.159995 -117.067004 238 3624ft 107kts
02-Dec-19 13:54 33.152372 -117.103607 272 3282ft 116kts
02-Dec-19 13:55 33.149558 -117.142369 258 2663ft 101kts
02-Dec-19 13:56 33.144863 -117.172937 258 2129ft 83kts
02-Dec-19 13:57 33.140880 -117.198371 258 1690ft 79kts
02-Dec-19 13:58 33.137417 -117.220628 257 1301ft 55kts
02-Dec-19 13:59 33.134759 -117.238873 258 996ft 63kts
02-Dec-19 14:00 33.131483 -117.259545 258 612ft 62kts
02-Dec-19 14:01 33.129171 -117.274511 199 335ft 0kts
02-Dec-19 14:02 33.128118 -117.274943 215 335ft 5kts

Navigation Log

Ident Type
Flight plan parsing failed, navigation log unavailable